sensor_id;sensor_type;location;lat;lon;timestamp;temperature;humidity
39881;DHT22;25554;44.954;10.068;2023-03-14T00:11:20;12.80;99.90
39881;DHT22;25554;44.954;10.068;2023-03-14T00:13:50;12.70;99.90
39881;DHT22;25554;44.954;10.068;2023-03-14T00:18:43;12.70;99.90
39881;DHT22;25554;44.954;10.068;2023-03-14T00:21:11;12.70;99.90
39881;DHT22;25554;44.954;10.068;2023-03-14T00:23:39;12.50;99.90
39881;DHT22;25554;44.954;10.068;2023-03-14T00:26:12;14.80;99.90
39881;DHT22;25554;44.954;10.068;2023-03-14T00:31:07;12.40;99.90
39881;DHT22;25554;44.954;10.068;2023-03-14T00:36:05;12.20;99.90
39881;DHT22;25554;44.954;10.068;2023-03-14T00:38:32;12.10;99.90
39881;DHT22;25554;44.954;10.068;2023-03-14T00:48:20;11.90;99.90
39881;DHT22;25554;44.954;10.068;2023-03-14T00:53:15;11.80;99.90
39881;DHT22;25554;44.954;10.068;2023-03-14T00:55:43;11.80;99.90
39881;DHT22;25554;44.954;10.068;2023-03-14T00:58:14;11.80;99.90
39881;DHT22;25554;44.954;10.068;2023-03-14T01:03:08;11.60;99.90
39881;DHT22;25554;44.954;10.068;2023-03-14T01:08:01;11.50;99.90
39881;DHT22;25554;44.954;10.068;2023-03-14T01:12:55;11.40;99.90
39881;DHT22;25554;44.954;10.068;2023-03-14T01:22:43;11.30;99.90
39881;DHT22;25554;44.954;10.068;2023-03-14T01:25:14;11.30;99.90
39881;DHT22;25554;44.954;10.068;2023-03-14T01:27:41;11.30;99.90
39881;DHT22;25554;44.954;10.068;2023-03-14T01:30:09;11.20;99.90
39881;DHT22;25554;44.954;10.068;2023-03-14T01:35:03;11.20;99.90
39881;DHT22;25554;44.954;10.068;2023-03-14T01:45:02;11.10;99.90
39881;DHT22;25554;44.954;10.068;2023-03-14T01:50:01;11.10;99.90
39881;DHT22;25554;44.954;10.068;2023-03-14T01:52:34;11.10;99.90
39881;DHT22;25554;44.954;10.068;2023-03-14T01:55:15;11.10;99.90
39881;DHT22;25554;44.954;10.068;2023-03-14T01:57:52;11.20;99.90
39881;DHT22;25554;44.954;10.068;2023-03-14T02:00:22;11.10;99.90
39881;DHT22;25554;44.954;10.068;2023-03-14T02:02:56;11.10;99.90
39881;DHT22;25554;44.954;10.068;2023-03-14T02:05:28;11.10;99.90
39881;DHT22;25554;44.954;10.068;2023-03-14T02:08:04;11.20;99.90
39881;DHT22;25554;44.954;10.068;2023-03-14T02:10:40;11.20;99.90
39881;DHT22;25554;44.954;10.068;2023-03-14T02:13:10;11.20;99.90
39881;DHT22;25554;44.954;10.068;2023-03-14T02:23:43;11.30;99.90
39881;DHT22;25554;44.954;10.068;2023-03-14T02:26:41;11.30;99.90
39881;DHT22;25554;44.954;10.068;2023-03-14T02:36:30;11.70;99.90
39881;DHT22;25554;44.954;10.068;2023-03-14T02:39:19;11.80;99.90
39881;DHT22;25554;44.954;10.068;2023-03-14T02:49:14;12.00;99.90
39881;DHT22;25554;44.954;10.068;2023-03-14T02:51:41;12.00;99.90
39881;DHT22;25554;44.954;10.068;2023-03-14T02:59:04;12.00;99.90
39881;DHT22;25554;44.954;10.068;2023-03-14T03:04:17;12.00;99.90
39881;DHT22;25554;44.954;10.068;2023-03-14T03:09:12;12.40;99.90
39881;DHT22;25554;44.954;10.068;2023-03-14T03:19:00;11.60;99.90
39881;DHT22;25554;44.954;10.068;2023-03-14T03:23:52;11.40;99.90
39881;DHT22;25554;44.954;10.068;2023-03-14T03:33:40;11.10;99.90
39881;DHT22;25554;44.954;10.068;2023-03-14T03:36:07;10.90;99.90
39881;DHT22;25554;44.954;10.068;2023-03-14T03:41:06;10.70;99.90
39881;DHT22;25554;44.954;10.068;2023-03-14T03:46:05;10.70;99.90
39881;DHT22;25554;44.954;10.068;2023-03-14T03:51:46;10.60;99.90
39881;DHT22;25554;44.954;10.068;2023-03-14T03:59:24;10.70;99.90
39881;DHT22;25554;44.954;10.068;2023-03-14T04:04:17;10.60;99.90
39881;DHT22;25554;44.954;10.068;2023-03-14T04:09:20;10.60;99.90
39881;DHT22;25554;44.954;10.068;2023-03-14T04:12:26;10.50;99.90
39881;DHT22;25554;44.954;10.068;2023-03-14T04:15:15;10.50;99.90
39881;DHT22;25554;44.954;10.068;2023-03-14T04:37:43;10.40;99.90
39881;DHT22;25554;44.954;10.068;2023-03-14T04:40:11;10.00;99.90
39881;DHT22;25554;44.954;10.068;2023-03-14T04:45:06;10.00;99.90
39881;DHT22;25554;44.954;10.068;2023-03-14T05:11:10;10.30;99.90
39881;DHT22;25554;44.954;10.068;2023-03-14T05:19:16;10.70;99.90
39881;DHT22;25554;44.954;10.068;2023-03-14T05:30:01;10.20;99.90
39881;DHT22;25554;44.954;10.068;2023-03-14T05:55:08;10.30;99.90
39881;DHT22;25554;44.954;10.068;2023-03-14T06:10:51;10.30;99.90
39881;DHT22;25554;44.954;10.068;2023-03-14T06:13:20;10.30;99.90
39881;DHT22;25554;44.954;10.068;2023-03-14T07:00:14;10.80;99.90
39881;DHT22;25554;44.954;10.068;2023-03-14T07:07:39;10.80;99.90
39881;DHT22;25554;44.954;10.068;2023-03-14T07:34:41;11.00;99.90
39881;DHT22;25554;44.954;10.068;2023-03-14T07:37:08;11.10;99.90
39881;DHT22;25554;44.954;10.068;2023-03-14T07:39:38;11.10;99.90
39881;DHT22;25554;44.954;10.068;2023-03-14T07:42:22;11.00;99.90
39881;DHT22;25554;44.954;10.068;2023-03-14T07:45:21;11.20;99.90
39881;DHT22;25554;44.954;10.068;2023-03-14T07:52:54;11.10;99.90
39881;DHT22;25554;44.954;10.068;2023-03-14T07:55:21;11.10;99.90
39881;DHT22;25554;44.954;10.068;2023-03-14T07:57:47;11.10;99.90
39881;DHT22;25554;44.954;10.068;2023-03-14T08:02:40;11.10;99.90
39881;DHT22;25554;44.954;10.068;2023-03-14T08:12:27;11.20;99.90
39881;DHT22;25554;44.954;10.068;2023-03-14T08:19:46;11.30;99.90
39881;DHT22;25554;44.954;10.068;2023-03-14T08:34:26;11.30;99.90
39881;DHT22;25554;44.954;10.068;2023-03-14T08:41:49;11.20;99.90
39881;DHT22;25554;44.954;10.068;2023-03-14T08:58:56;11.20;99.90
39881;DHT22;25554;44.954;10.068;2023-03-14T09:08:44;11.30;99.90
39881;DHT22;25554;44.954;10.068;2023-03-14T09:11:12;11.30;99.90
39881;DHT22;25554;44.954;10.068;2023-03-14T09:16:05;11.40;99.90
39881;DHT22;25554;44.954;10.068;2023-03-14T09:25:55;11.70;99.90
39881;DHT22;25554;44.954;10.068;2023-03-14T09:30:48;11.70;99.90
39881;DHT22;25554;44.954;10.068;2023-03-14T09:33:16;11.90;99.90
39881;DHT22;25554;44.954;10.068;2023-03-14T09:40:37;12.20;99.90
39881;DHT22;25554;44.954;10.068;2023-03-14T09:43:04;12.20;99.90
39881;DHT22;25554;44.954;10.068;2023-03-14T09:45:39;12.10;99.90
39881;DHT22;25554;44.954;10.068;2023-03-14T09:48:22;12.00;99.90
39881;DHT22;25554;44.954;10.068;2023-03-14T09:50:53;12.00;99.90
39881;DHT22;25554;44.954;10.068;2023-03-14T09:56:11;12.10;99.90
39881;DHT22;25554;44.954;10.068;2023-03-14T09:58:40;12.10;99.90
39881;DHT22;25554;44.954;10.068;2023-03-14T10:01:10;12.30;99.90
39881;DHT22;25554;44.954;10.068;2023-03-14T10:06:11;12.40;99.90
39881;DHT22;25554;44.954;10.068;2023-03-14T10:08:44;12.50;99.90
39881;DHT22;25554;44.954;10.068;2023-03-14T10:11:14;12.50;99.90
39881;DHT22;25554;44.954;10.068;2023-03-14T10:16:40;12.60;99.90
39881;DHT22;25554;44.954;10.068;2023-03-14T10:19:10;12.50;99.90
39881;DHT22;25554;44.954;10.068;2023-03-14T10:21:44;12.50;99.90
39881;DHT22;25554;44.954;10.068;2023-03-14T10:24:21;12.40;99.90
39881;DHT22;25554;44.954;10.068;2023-03-14T10:26:49;12.50;99.90
39881;DHT22;25554;44.954;10.068;2023-03-14T10:34:32;12.60;99.90
39881;DHT22;25554;44.954;10.068;2023-03-14T10:37:22;12.60;99.90
39881;DHT22;25554;44.954;10.068;2023-03-14T10:39:53;12.60;99.90
39881;DHT22;25554;44.954;10.068;2023-03-14T10:42:34;12.60;99.90
39881;DHT22;25554;44.954;10.068;2023-03-14T10:45:28;12.70;99.90
39881;DHT22;25554;44.954;10.068;2023-03-14T10:50:30;12.70;99.90
39881;DHT22;25554;44.954;10.068;2023-03-14T10:53:01;12.80;99.90
39881;DHT22;25554;44.954;10.068;2023-03-14T10:55:42;13.00;99.90
39881;DHT22;25554;44.954;10.068;2023-03-14T10:58:24;13.10;99.90
39881;DHT22;25554;44.954;10.068;2023-03-14T11:03:54;13.30;99.90
39881;DHT22;25554;44.954;10.068;2023-03-14T11:12:59;13.90;99.90
39881;DHT22;25554;44.954;10.068;2023-03-14T11:15:53;13.90;99.90
39881;DHT22;25554;44.954;10.068;2023-03-14T11:30:12;14.50;99.90
39881;DHT22;25554;44.954;10.068;2023-03-14T11:35:33;14.10;99.90
39881;DHT22;25554;44.954;10.068;2023-03-14T11:40:55;14.40;99.90
39881;DHT22;25554;44.954;10.068;2023-03-14T11:43:37;14.50;99.90
39881;DHT22;25554;44.954;10.068;2023-03-14T11:46:11;14.60;99.90
39881;DHT22;25554;44.954;10.068;2023-03-14T11:48:48;14.60;99.90
39881;DHT22;25554;44.954;10.068;2023-03-14T11:51:27;14.60;99.90
39881;DHT22;25554;44.954;10.068;2023-03-14T11:54:02;14.60;99.90
39881;DHT22;25554;44.954;10.068;2023-03-14T11:56:47;14.70;99.90
39881;DHT22;25554;44.954;10.068;2023-03-14T11:59:21;14.70;99.90
39881;DHT22;25554;44.954;10.068;2023-03-14T12:07:43;14.30;99.90
39881;DHT22;25554;44.954;10.068;2023-03-14T12:15:19;14.40;99.90
39881;DHT22;25554;44.954;10.068;2023-03-14T12:20:26;14.20;99.90
39881;DHT22;25554;44.954;10.068;2023-03-14T12:22:57;14.20;99.90
39881;DHT22;25554;44.954;10.068;2023-03-14T12:25:30;14.20;99.90
39881;DHT22;25554;44.954;10.068;2023-03-14T12:35:46;14.30;99.90
39881;DHT22;25554;44.954;10.068;2023-03-14T12:43:29;14.20;99.90
39881;DHT22;25554;44.954;10.068;2023-03-14T12:48:54;14.20;99.90
39881;DHT22;25554;44.954;10.068;2023-03-14T12:59:56;14.80;99.90
39881;DHT22;25554;44.954;10.068;2023-03-14T13:02:38;14.50;99.90
39881;DHT22;25554;44.954;10.068;2023-03-14T13:05:22;14.50;99.90
39881;DHT22;25554;44.954;10.068;2023-03-14T13:13:04;14.90;99.90
39881;DHT22;25554;44.954;10.068;2023-03-14T13:15:42;14.90;99.90
39881;DHT22;25554;44.954;10.068;2023-03-14T13:18:18;16.10;99.90
39881;DHT22;25554;44.954;10.068;2023-03-14T13:21:02;15.00;99.90
39881;DHT22;25554;44.954;10.068;2023-03-14T13:23:31;15.00;99.90
39881;DHT22;25554;44.954;10.068;2023-03-14T13:25:59;15.00;99.90
39881;DHT22;25554;44.954;10.068;2023-03-14T13:28:27;15.00;99.90
39881;DHT22;25554;44.954;10.068;2023-03-14T13:31:00;16.20;99.90
39881;DHT22;25554;44.954;10.068;2023-03-14T13:35:58;15.10;99.90
39881;DHT22;25554;44.954;10.068;2023-03-14T13:38:29;15.20;99.90
39881;DHT22;25554;44.954;10.068;2023-03-14T13:41:00;15.30;99.90
39881;DHT22;25554;44.954;10.068;2023-03-14T13:43:41;15.30;99.90
39881;DHT22;25554;44.954;10.068;2023-03-14T13:46:19;15.40;99.90
39881;DHT22;25554;44.954;10.068;2023-03-14T13:48:52;15.30;99.90
39881;DHT22;25554;44.954;10.068;2023-03-14T13:51:20;15.40;99.90
39881;DHT22;25554;44.954;10.068;2023-03-14T13:53:52;15.40;99.90
39881;DHT22;25554;44.954;10.068;2023-03-14T13:56:21;15.40;99.90
39881;DHT22;25554;44.954;10.068;2023-03-14T14:03:41;15.50;99.90
39881;DHT22;25554;44.954;10.068;2023-03-14T14:06:25;15.50;99.90
39881;DHT22;25554;44.954;10.068;2023-03-14T14:08:54;15.90;99.90
39881;DHT22;25554;44.954;10.068;2023-03-14T14:11:42;15.80;99.90
39881;DHT22;25554;44.954;10.068;2023-03-14T14:14:17;15.90;99.90
39881;DHT22;25554;44.954;10.068;2023-03-14T14:19:13;16.10;99.90
39881;DHT22;25554;44.954;10.068;2023-03-14T14:24:11;16.00;99.90
39881;DHT22;25554;44.954;10.068;2023-03-14T14:26:41;15.80;99.90
39881;DHT22;25554;44.954;10.068;2023-03-14T14:32:23;15.90;99.90
39881;DHT22;25554;44.954;10.068;2023-03-14T14:34:56;16.10;99.90
39881;DHT22;25554;44.954;10.068;2023-03-14T14:37:25;16.20;99.90
39881;DHT22;25554;44.954;10.068;2023-03-14T14:39:57;16.20;99.90
39881;DHT22;25554;44.954;10.068;2023-03-14T14:42:31;16.30;99.90
39881;DHT22;25554;44.954;10.068;2023-03-14T14:44:58;16.40;99.90
39881;DHT22;25554;44.954;10.068;2023-03-14T14:47:28;16.60;99.90
39881;DHT22;25554;44.954;10.068;2023-03-14T14:49:59;16.80;99.90
39881;DHT22;25554;44.954;10.068;2023-03-14T14:56:26;16.70;99.90
39881;DHT22;25554;44.954;10.068;2023-03-14T14:58:59;16.60;99.90
39881;DHT22;25554;44.954;10.068;2023-03-14T15:01:33;16.40;99.90
39881;DHT22;25554;44.954;10.068;2023-03-14T15:06:29;16.30;99.90
39881;DHT22;25554;44.954;10.068;2023-03-14T15:16:25;16.50;99.90
39881;DHT22;25554;44.954;10.068;2023-03-14T15:18:59;16.50;99.90
39881;DHT22;25554;44.954;10.068;2023-03-14T15:21:27;16.60;99.90
39881;DHT22;25554;44.954;10.068;2023-03-14T15:26:24;16.60;99.90
39881;DHT22;25554;44.954;10.068;2023-03-14T15:31:19;16.10;99.90
39881;DHT22;25554;44.954;10.068;2023-03-14T15:34:05;15.90;99.90
39881;DHT22;25554;44.954;10.068;2023-03-14T15:36:53;15.60;99.90
39881;DHT22;25554;44.954;10.068;2023-03-14T15:42:33;15.10;99.90
39881;DHT22;25554;44.954;10.068;2023-03-14T15:53:21;14.90;99.90
39881;DHT22;25554;44.954;10.068;2023-03-14T15:58:19;14.80;99.90
39881;DHT22;25554;44.954;10.068;2023-03-14T16:05:40;14.70;99.90
39881;DHT22;25554;44.954;10.068;2023-03-14T16:17:53;14.90;99.90
39881;DHT22;25554;44.954;10.068;2023-03-14T16:20:21;14.90;99.90
39881;DHT22;25554;44.954;10.068;2023-03-14T16:25:15;14.80;99.90
39881;DHT22;25554;44.954;10.068;2023-03-14T16:30:09;14.60;99.90
39881;DHT22;25554;44.954;10.068;2023-03-14T16:35:02;13.80;99.90
39881;DHT22;25554;44.954;10.068;2023-03-14T16:39:55;14.40;99.90
39881;DHT22;25554;44.954;10.068;2023-03-14T16:42:22;14.30;99.90
39881;DHT22;25554;44.954;10.068;2023-03-14T16:47:15;14.30;99.90
39881;DHT22;25554;44.954;10.068;2023-03-14T16:52:07;14.20;99.90
39881;DHT22;25554;44.954;10.068;2023-03-14T16:57:00;14.10;99.90
39881;DHT22;25554;44.954;10.068;2023-03-14T17:01:56;14.00;99.90
39881;DHT22;25554;44.954;10.068;2023-03-14T17:06:49;13.90;99.90
39881;DHT22;25554;44.954;10.068;2023-03-14T17:11:42;13.80;99.90
39881;DHT22;25554;44.954;10.068;2023-03-14T17:16:35;13.70;99.90
39881;DHT22;25554;44.954;10.068;2023-03-14T17:21:28;13.60;99.90
39881;DHT22;25554;44.954;10.068;2023-03-14T17:26:20;13.50;99.90
39881;DHT22;25554;44.954;10.068;2023-03-14T17:31:18;13.40;99.90
39881;DHT22;25554;44.954;10.068;2023-03-14T17:41:11;13.30;99.90
39881;DHT22;25554;44.954;10.068;2023-03-14T17:43:38;13.30;99.90
39881;DHT22;25554;44.954;10.068;2023-03-14T17:46:06;15.80;99.90
39881;DHT22;25554;44.954;10.068;2023-03-14T17:48:46;13.30;99.90
39881;DHT22;25554;44.954;10.068;2023-03-14T17:51:14;13.20;99.90
39881;DHT22;25554;44.954;10.068;2023-03-14T18:01:13;12.90;99.90
39881;DHT22;25554;44.954;10.068;2023-03-14T18:03:39;13.10;99.90
39881;DHT22;25554;44.954;10.068;2023-03-14T18:11:02;12.90;99.90
39881;DHT22;25554;44.954;10.068;2023-03-14T18:15:55;13.00;99.90
39881;DHT22;25554;44.954;10.068;2023-03-14T18:20:52;12.80;99.90
39881;DHT22;25554;44.954;10.068;2023-03-14T18:23:19;12.70;99.90
39881;DHT22;25554;44.954;10.068;2023-03-14T18:25:47;12.70;99.90
39881;DHT22;25554;44.954;10.068;2023-03-14T18:28:14;12.70;99.90
39881;DHT22;25554;44.954;10.068;2023-03-14T18:30:41;12.70;99.90
39881;DHT22;25554;44.954;10.068;2023-03-14T18:33:08;12.90;99.90
39881;DHT22;25554;44.954;10.068;2023-03-14T18:35:35;12.60;99.90
39881;DHT22;25554;44.954;10.068;2023-03-14T18:38:02;12.50;99.90
39881;DHT22;25554;44.954;10.068;2023-03-14T18:45:22;12.50;99.90
39881;DHT22;25554;44.954;10.068;2023-03-14T18:52:41;12.40;99.90
39881;DHT22;25554;44.954;10.068;2023-03-14T19:00:01;12.30;99.90
39881;DHT22;25554;44.954;10.068;2023-03-14T19:04:53;12.30;99.90
39881;DHT22;25554;44.954;10.068;2023-03-14T19:07:20;12.20;99.90
39881;DHT22;25554;44.954;10.068;2023-03-14T19:17:09;12.20;99.90
39881;DHT22;25554;44.954;10.068;2023-03-14T19:24:03;12.20;99.90
39881;DHT22;25554;44.954;10.068;2023-03-14T19:31:31;12.00;99.90
39881;DHT22;25554;44.954;10.068;2023-03-14T19:34:23;12.10;99.90
39881;DHT22;25554;44.954;10.068;2023-03-14T19:41:43;12.10;99.90
39881;DHT22;25554;44.954;10.068;2023-03-14T19:44:58;12.20;99.90
39881;DHT22;25554;44.954;10.068;2023-03-14T19:48:10;12.10;99.90
39881;DHT22;25554;44.954;10.068;2023-03-14T20:05:21;12.00;99.90
39881;DHT22;25554;44.954;10.068;2023-03-14T20:10:18;12.00;99.90
39881;DHT22;25554;44.954;10.068;2023-03-14T20:35:22;8.60;99.90
39881;DHT22;25554;44.954;10.068;2023-03-14T20:37:50;11.20;99.90
39881;DHT22;25554;44.954;10.068;2023-03-14T20:40:18;10.90;99.90
39881;DHT22;25554;44.954;10.068;2023-03-14T20:45:11;11.10;99.90
39881;DHT22;25554;44.954;10.068;2023-03-14T21:04:43;10.80;99.90
39881;DHT22;25554;44.954;10.068;2023-03-14T21:12:04;10.70;99.90
39881;DHT22;25554;44.954;10.068;2023-03-14T21:19:25;10.80;99.90
39881;DHT22;25554;44.954;10.068;2023-03-14T21:22:00;10.70;99.90
39881;DHT22;25554;44.954;10.068;2023-03-14T21:29:21;10.40;99.90
39881;DHT22;25554;44.954;10.068;2023-03-14T21:41:34;10.10;99.90
39881;DHT22;25554;44.954;10.068;2023-03-14T21:46:27;10.10;99.90
39881;DHT22;25554;44.954;10.068;2023-03-14T22:06:02;10.00;99.90
39881;DHT22;25554;44.954;10.068;2023-03-14T22:08:28;9.40;99.90
39881;DHT22;25554;44.954;10.068;2023-03-14T22:13:22;9.90;99.90
39881;DHT22;25554;44.954;10.068;2023-03-14T22:18:17;9.80;99.90
39881;DHT22;25554;44.954;10.068;2023-03-14T22:20:44;9.90;99.90
39881;DHT22;25554;44.954;10.068;2023-03-14T22:25:45;9.80;99.90
39881;DHT22;25554;44.954;10.068;2023-03-14T22:30:38;9.90;99.90
39881;DHT22;25554;44.954;10.068;2023-03-14T22:37:57;10.00;99.90
39881;DHT22;25554;44.954;10.068;2023-03-14T22:42:51;10.00;99.90
39881;DHT22;25554;44.954;10.068;2023-03-14T22:50:10;9.90;99.90
39881;DHT22;25554;44.954;10.068;2023-03-14T22:55:03;9.70;99.90
39881;DHT22;25554;44.954;10.068;2023-03-14T23:02:23;9.80;99.90
39881;DHT22;25554;44.954;10.068;2023-03-14T23:07:15;9.60;99.90
39881;DHT22;25554;44.954;10.068;2023-03-14T23:12:08;9.60;99.90
39881;DHT22;25554;44.954;10.068;2023-03-14T23:24:23;9.40;99.90
39881;DHT22;25554;44.954;10.068;2023-03-14T23:29:19;8.80;99.90
39881;DHT22;25554;44.954;10.068;2023-03-14T23:31:45;9.10;99.90
39881;DHT22;25554;44.954;10.068;2023-03-14T23:36:38;9.10;99.90
39881;DHT22;25554;44.954;10.068;2023-03-14T23:39:05;9.00;99.90
39881;DHT22;25554;44.954;10.068;2023-03-14T23:46:27;8.80;99.90
39881;DHT22;25554;44.954;10.068;2023-03-14T23:51:20;8.70;99.90
39881;DHT22;25554;44.954;10.068;2023-03-14T23:56:15;8.50;99.90
